createdAt,value
2023-01-01T00:02:41.910Z,84.47
2023-01-01T00:08:17.747Z,84.73
2023-01-01T00:13:49.553Z,84.49
2023-01-01T00:19:21.180Z,84.53
2023-01-01T00:24:53.183Z,84.33
2023-01-01T00:30:24.811Z,84.05
2023-01-01T00:35:56.357Z,84.06
2023-01-01T00:41:28.093Z,84.07
2023-01-01T00:46:59.935Z,83.66
2023-01-01T00:52:31.560Z,84.19
2023-01-01T00:58:03.449Z,83.72
2023-01-01T01:03:34.852Z,83.93
2023-01-01T01:09:12.237Z,83.61
2023-01-01T01:14:42.975Z,83.9
2023-01-01T01:20:14.518Z,84.02
2023-01-01T01:25:46.167Z,83.81
2023-01-01T01:31:18.876Z,83.21
2023-01-01T01:36:49.689Z,83.73
2023-01-01T01:42:21.302Z,83.41
2023-01-01T01:47:53.063Z,83.08
2023-01-01T01:53:24.858Z,83.18
2023-01-01T01:58:57.912Z,83.47
2023-01-01T02:04:28.358Z,83.24
2023-01-01T02:10:05.264Z,82.99
2023-01-01T02:15:36.302Z,82.62
2023-01-01T02:21:08.291Z,82.9
2023-01-01T02:26:39.590Z,83.08
2023-01-01T02:32:11.262Z,82.95
2023-01-01T02:37:43.591Z,82.4
2023-01-01T02:43:16.957Z,82.43
2023-01-01T02:48:46.541Z,82.59
2023-01-01T02:54:18.144Z,82.33
2023-01-01T02:59:49.991Z,82.21
2023-01-01T03:05:21.749Z,82.21
2023-01-01T03:10:59.854Z,82.3
2023-01-01T03:16:31.365Z,81.88
2023-01-01T03:22:03.289Z,81.79
2023-01-01T03:27:34.969Z,82.55
2023-01-01T03:33:06.635Z,82.01
2023-01-01T03:38:38.232Z,82.14
2023-01-01T03:44:10.094Z,82.27
2023-01-01T03:49:41.732Z,83.08
2023-01-01T03:55:13.549Z,83.06
2023-01-01T04:00:45.094Z,83.3
2023-01-01T04:06:16.857Z,83.08
2023-01-01T04:11:53.099Z,83.01
2023-01-01T04:17:24.790Z,83.48
2023-01-01T04:22:57.695Z,83.66
2023-01-01T04:28:28.232Z,84.08
2023-01-01T04:33:59.895Z,83.85
2023-01-01T04:39:31.573Z,83.55
2023-01-01T04:45:03.364Z,83.89
2023-01-01T04:50:35.033Z,84.2
2023-01-01T04:56:06.696Z,84.78
2023-01-01T05:01:38.808Z,84.66
2023-01-01T05:07:10.064Z,84.8
2023-01-01T05:12:48.192Z,85.27
2023-01-01T05:18:19.880Z,85.17
2023-01-01T05:23:51.625Z,84.89
2023-01-01T05:29:23.372Z,84.98
2023-01-01T05:34:55.599Z,84.4
2023-01-01T05:40:26.779Z,84.41
2023-01-01T05:45:58.451Z,83.86
2023-01-01T05:57:02.025Z,84.0
2023-01-01T06:02:33.735Z,83.47
2023-01-01T06:08:05.333Z,83.3
2023-01-01T06:13:41.445Z,83.73
2023-01-01T06:19:13.180Z,83.45
2023-01-01T06:24:44.963Z,83.13
2023-01-01T06:30:16.692Z,82.63
2023-01-01T06:35:48.341Z,82.74
2023-01-01T06:41:20.076Z,82.69
2023-01-01T06:46:51.805Z,82.37
2023-01-01T06:52:23.520Z,82.37
2023-01-01T06:57:55.261Z,82.24
2023-01-01T07:03:27.178Z,82.47
2023-01-01T07:08:58.897Z,82.41
2023-01-01T07:14:34.816Z,82.43
2023-01-01T07:20:06.645Z,83.08
2023-01-01T07:25:38.289Z,84.35
2023-01-01T07:31:10.498Z,84.54
2023-01-01T07:36:41.735Z,84.63
2023-01-01T07:42:13.493Z,84.34
2023-01-01T07:47:45.199Z,83.95
2023-01-01T07:53:16.922Z,83.61
2023-01-01T07:58:48.684Z,82.94
2023-01-01T08:04:20.396Z,82.51
2023-01-01T08:09:52.104Z,82.3
2023-01-01T08:15:28.252Z,81.86
2023-01-01T08:21:00.066Z,81.61
2023-01-01T08:26:31.646Z,81.27
2023-01-01T08:32:03.452Z,80.74
2023-01-01T08:37:35.547Z,80.94
2023-01-01T08:43:06.848Z,80.51
2023-01-01T08:48:38.620Z,80.53
2023-01-01T08:54:10.634Z,80.69
2023-01-01T08:59:42.187Z,80.27
2023-01-01T09:05:13.807Z,80.16
2023-01-01T09:10:45.478Z,79.75
2023-01-01T09:16:21.704Z,79.29
2023-01-01T09:21:53.425Z,79.04
2023-01-01T09:27:25.295Z,79.01
2023-01-01T09:32:56.788Z,78.96
2023-01-01T09:38:28.454Z,78.97
2023-01-01T09:44:00.626Z,78.43
2023-01-01T09:49:32.093Z,78.48
2023-01-01T09:55:03.784Z,78.38
2023-01-01T10:00:35.951Z,77.64
2023-01-01T10:06:07.332Z,77.45
2023-01-01T10:11:38.895Z,77.52
2023-01-01T10:17:15.069Z,77.02
2023-01-01T10:22:46.993Z,76.26
2023-01-01T10:28:18.669Z,76.3
2023-01-01T10:33:50.244Z,75.82
2023-01-01T10:39:21.997Z,75.03
2023-01-01T10:44:53.749Z,74.52
2023-01-01T10:50:25.347Z,74.21
2023-01-01T10:55:57.020Z,73.57
2023-01-01T11:01:29.027Z,73.4
2023-01-01T11:07:00.556Z,73.79
2023-01-01T11:13:05.806Z,72.89
2023-01-01T11:18:10.463Z,72.17
2023-01-01T11:23:42.105Z,72.21
2023-01-01T11:29:13.764Z,71.06
2023-01-01T11:34:45.439Z,71.23
2023-01-01T11:40:17.280Z,70.08
2023-01-01T11:45:48.991Z,70.43
2023-01-01T11:51:20.716Z,69.76
2023-01-01T11:56:52.413Z,69.03
2023-01-01T12:02:24.145Z,68.45
2023-01-01T12:07:55.911Z,68.58
2023-01-01T12:13:27.602Z,67.31
2023-01-01T12:19:05.951Z,68.61
2023-01-01T12:24:37.437Z,65.74
2023-01-01T12:30:09.180Z,67.97
2023-01-01T12:35:40.931Z,66.64
2023-01-01T12:41:12.722Z,65.38
2023-01-01T12:46:44.470Z,66.34
2023-01-01T12:52:16.134Z,65.52
2023-01-01T12:57:47.824Z,67.25
2023-01-01T13:03:19.904Z,66.31
2023-01-01T13:08:51.280Z,66.49
2023-01-01T13:14:23.032Z,67.43
2023-01-01T13:19:59.162Z,65.73
2023-01-01T13:25:30.874Z,65.69
2023-01-01T13:31:02.603Z,67.75
2023-01-01T13:36:34.238Z,68.24
2023-01-01T13:42:05.960Z,68.4
2023-01-01T13:47:37.814Z,68.65
2023-01-01T13:53:09.386Z,68.78
2023-01-01T13:58:41.104Z,69.1
2023-01-01T14:04:12.798Z,68.4
2023-01-01T14:09:44.691Z,68.34
2023-01-01T14:15:16.334Z,68.03
2023-01-01T14:20:52.381Z,68.31
2023-01-01T14:26:24.185Z,68.93
2023-01-01T14:31:55.953Z,68.86
2023-01-01T14:37:27.778Z,69.07
2023-01-01T14:42:59.372Z,68.62
2023-01-01T14:48:31.023Z,68.63
2023-01-01T14:54:02.896Z,68.52
2023-01-01T14:59:34.631Z,68.93
2023-01-01T15:05:06.248Z,69.01
2023-01-01T15:10:38.016Z,69.08
2023-01-01T15:16:09.828Z,69.04
2023-01-01T15:21:47.867Z,69.9
2023-01-01T15:27:19.729Z,70.78
2023-01-01T15:32:51.306Z,70.4
2023-01-01T15:38:22.971Z,70.48
2023-01-01T15:43:54.943Z,70.54
2023-01-01T15:49:26.402Z,70.74
2023-01-01T15:54:58.077Z,71.0
2023-01-01T16:00:29.835Z,71.6
2023-01-01T16:06:01.512Z,72.07
2023-01-01T16:11:33.261Z,72.7
2023-01-01T16:17:05.103Z,73.74
2023-01-01T16:22:43.071Z,73.96
2023-01-01T16:28:14.828Z,74.13
2023-01-01T16:33:46.425Z,75.13
2023-01-01T16:39:18.280Z,75.93
2023-01-01T16:44:49.960Z,76.72
2023-01-01T16:50:21.684Z,77.21
2023-01-01T16:55:53.506Z,77.39
2023-01-01T17:01:25.650Z,77.75
2023-01-01T17:06:56.953Z,78.54
2023-01-01T17:12:28.811Z,77.85
2023-01-01T17:18:00.504Z,78.34
2023-01-01T17:23:36.462Z,78.4
2023-01-01T17:29:08.490Z,78.62
2023-01-01T17:34:40.088Z,78.1
2023-01-01T17:40:11.683Z,78.34
2023-01-01T17:45:43.427Z,77.79
2023-01-01T17:51:15.360Z,77.81
2023-01-01T17:56:47.352Z,78.67
2023-01-01T18:02:18.979Z,79.32
2023-01-01T18:07:50.308Z,79.01
2023-01-01T18:13:22.061Z,78.77
2023-01-01T18:18:53.772Z,78.8
2023-01-01T18:24:29.830Z,79.79
2023-01-01T18:30:01.587Z,79.76
2023-01-01T18:35:33.258Z,79.77
2023-01-01T18:41:05.033Z,79.0
2023-01-01T18:46:36.822Z,78.86
2023-01-01T18:52:08.443Z,79.36
2023-01-01T18:57:40.095Z,79.34
2023-01-01T19:03:12.040Z,78.26
2023-01-01T19:08:43.661Z,77.56
2023-01-01T19:14:15.367Z,76.69
2023-01-01T19:19:47.032Z,74.99
2023-01-01T19:25:23.199Z,73.75
2023-01-01T19:30:54.921Z,72.19
2023-01-01T19:36:26.689Z,71.39
2023-01-01T19:41:58.424Z,71.03
2023-01-01T19:47:30.114Z,70.6
2023-01-01T19:53:01.962Z,70.63
2023-01-01T19:58:33.586Z,70.19
2023-01-01T20:04:05.640Z,69.97
2023-01-01T20:09:37.033Z,69.92
2023-01-01T20:15:08.722Z,70.05
2023-01-01T20:20:40.500Z,69.86
2023-01-01T20:26:18.921Z,69.77
2023-01-01T20:31:50.534Z,69.87
2023-01-01T20:37:21.996Z,69.79
2023-01-01T20:42:53.983Z,70.38
2023-01-01T20:48:25.444Z,70.72
2023-01-01T20:53:57.158Z,71.0
2023-01-01T20:59:38.239Z,70.65
2023-01-01T21:05:00.559Z,70.5
2023-01-01T21:10:32.317Z,70.65
2023-01-01T21:16:04.041Z,70.39
2023-01-01T21:21:35.752Z,70.44
2023-01-01T21:27:11.787Z,70.52
2023-01-01T21:32:43.557Z,70.16
2023-01-01T21:38:16.739Z,69.76
2023-01-01T21:43:47.033Z,68.44
2023-01-01T21:49:18.772Z,67.78
2023-01-01T21:54:50.429Z,67.38
2023-01-01T22:00:22.519Z,67.54
2023-01-01T22:05:59.738Z,68.0
2023-01-01T22:11:25.753Z,68.21
2023-01-01T22:16:58.073Z,69.09
2023-01-01T22:22:29.133Z,69.42
2023-01-01T22:28:07.206Z,69.72
2023-01-01T22:33:39.029Z,70.24
2023-01-01T22:39:10.718Z,70.38
2023-01-01T22:44:42.930Z,70.75
2023-01-01T22:50:14.216Z,70.83
2023-01-01T22:55:45.884Z,71.36
2023-01-01T23:01:17.656Z,71.26
2023-01-01T23:06:49.326Z,71.23
2023-01-01T23:12:21.094Z,71.01
2023-01-01T23:17:52.733Z,70.02
2023-01-01T23:23:24.390Z,69.0
2023-01-01T23:29:00.618Z,68.6
2023-01-01T23:34:32.271Z,68.27
2023-01-01T23:40:04.044Z,68.6
2023-01-01T23:45:35.701Z,68.84
2023-01-01T23:51:07.402Z,68.93
2023-01-01T23:56:39.143Z,69.05
